Portada
METAR-TAF:

METAR-TAF

Aeropuertos :

Aeropuerto de Retalhuleu

Retalhuleu, Guatemala

latitud: 14-32N, longitud: 091-40W, altitud: 239 m

Observación

El informe se hizo hace 36 minutos, a las 20:00 UTC
Viento 12 kt del suroeste
Temperatura 33°C
Humedad 49%
Presión 1014 hPa
Visibilidad 10 km o más
Cielo nuboso a una altura de 2000 ft
Escasas nubes a una altura de 20000 ft

METAR: MGRT 202000Z 22012KT 9999 BKN020 33/21 Q1014 A2994 FEW200

Hora: 14:36 (20:36 UTC)


TAF: falta

Observaciones y pronósticos meteorológicos de más de 4000 aeropuertos (mensajes METAR y TAF).

Los puntos amarillos y rojos representan las estaciones disponibles.

Ponga el ratón en el punto deseado para ver el nombre de la estación.

Haga clic para ver las observaciones y los pronósticos meteorológicos.

Para cambiar el mapa : haga clic en los botones verdes con una cruz de color negro para hacer un zoom, en el botón verde con un guión para alejar o en las flechas verdes para mapas adyacentes.


METAR-TAF: